Time;durP1;ratioP1;P1;durP2;ratioP2;P2;SDS_P1;SDS_P2;PMS_P1;PMS_P2;Temp;Humidity;BMP_temperature;BMP_pressure;BME280_temperature;BME280_humidity;BME280_pressure;Samples;Min_cycle;Max_cycle;Signal;HPM_P1;HPM_P2
2023/07/24 00:07:10;;;;;;;2.40;2.03;;;;;;;21.04;97.07;100026.63;20190907;29;20522;-64
2023/07/24 00:17:11;;;;;;;2.85;2.30;;;;;;;21.01;97.23;100016.97;20188885;29;20056;-64
2023/07/24 00:27:13;;;;;;;3.22;2.20;;;;;;;21.03;97.19;100018.66;20233437;29;20561;-64
2023/07/24 00:37:15;;;;;;;2.40;2.20;;;;;;;21.02;96.95;100017.84;20218978;29;20405;-64
2023/07/24 00:47:17;;;;;;;3.83;2.90;;;;;;;20.99;96.90;100010.91;20210480;29;20060;-64
2023/07/24 00:57:20;;;;;;;2.95;2.65;;;;;;;21.00;96.64;100014.47;20264417;29;20087;-64
2023/07/24 01:07:22;;;;;;;3.40;2.63;;;;;;;20.99;96.36;100013.63;20211293;29;20125;-64
2023/07/24 01:17:26;;;;;;;4.20;2.78;;;;;;;20.98;96.20;99990.28;20214954;29;20052;-64
2023/07/24 01:27:28;;;;;;;;;;;;;;;20.97;95.80;99983.19;20255562;29;20051;-64
2023/07/24 01:37:30;;;;;;;3.22;2.80;;;;;;;20.96;95.88;99991.47;20238652;29;20026;-64
2023/07/24 01:47:32;;;;;;;2.83;2.45;;;;;;;20.95;95.53;99958.19;20222158;29;20048;-64
2023/07/24 01:57:34;;;;;;;3.88;3.30;;;;;;;20.95;95.67;99957.31;20212964;29;20129;-64
2023/07/24 02:07:36;;;;;;;3.13;2.80;;;;;;;20.94;95.22;99942.09;20212493;29;20053;-64
2023/07/24 02:17:38;;;;;;;3.00;2.70;;;;;;;20.93;95.45;99949.41;20183078;29;20060;-64
2023/07/24 02:27:40;;;;;;;3.03;2.65;;;;;;;20.93;95.34;99940.44;20256537;29;20131;-64
2023/07/24 02:37:42;;;;;;;3.15;2.85;;;;;;;20.91;94.64;99928.94;20257323;29;20108;-64
2023/07/24 02:47:45;;;;;;;3.22;2.92;;;;;;;20.89;94.59;99928.28;20202084;29;20053;-65
2023/07/24 02:57:48;;;;;;;3.50;2.67;;;;;;;20.88;94.51;99932.88;20218824;29;20116;-64
2023/07/24 03:07:49;;;;;;;4.10;2.78;;;;;;;20.89;94.55;99941.81;20224492;29;20053;-64
2023/07/24 03:17:51;;;;;;;3.78;2.95;;;;;;;20.88;94.37;99932.00;20204722;29;20057;-64
2023/07/24 03:27:53;;;;;;;3.10;2.80;;;;;;;20.85;94.26;99917.81;20269534;29;20139;-65
2023/07/24 03:37:55;;;;;;;3.10;2.80;;;;;;;20.87;94.10;99925.78;20269465;29;20053;-65
2023/07/24 03:47:57;;;;;;;3.90;2.90;;;;;;;20.86;94.00;99916.81;20269831;29;20458;-65
2023/07/24 03:57:58;;;;;;;2.67;2.40;;;;;;;20.85;93.91;99904.31;20267798;29;20048;-64
2023/07/24 04:08:00;;;;;;;3.08;2.75;;;;;;;20.85;93.85;99906.19;20268101;29;20071;-64
2023/07/24 04:18:02;;;;;;;3.50;3.08;;;;;;;20.85;93.86;99911.59;20264719;29;20053;-64
2023/07/24 04:28:03;;;;;;;2.85;2.63;;;;;;;20.83;93.72;99898.22;20220240;29;20052;-64
2023/07/24 04:38:05;;;;;;;3.50;2.53;;;;;;;20.82;93.60;99893.03;20227118;29;20128;-64
2023/07/24 04:48:07;;;;;;;3.90;2.90;;;;;;;20.84;94.60;99882.84;20231662;29;20048;-63
2023/07/24 04:58:08;;;;;;;4.45;2.95;;;;;;;20.88;95.24;99878.75;20234429;29;20136;-65
2023/07/24 05:08:10;;;;;;;3.97;3.50;;;;;;;20.93;94.55;99857.41;20254275;29;20060;-65
2023/07/24 05:18:12;;;;;;;3.75;3.00;;;;;;;20.95;94.12;99855.38;20262130;29;20054;-65
2023/07/24 05:28:13;;;;;;;4.93;3.15;;;;;;;20.98;93.81;99860.41;20262559;29;20100;-65
2023/07/24 05:38:15;;;;;;;3.90;3.17;;;;;;;21.01;93.54;99892.53;20261716;29;20057;-65
2023/07/24 05:48:17;;;;;;;5.68;3.60;;;;;;;20.97;93.25;99879.53;20260623;29;20053;-67
2023/07/24 05:58:18;;;;;;;3.40;3.10;;;;;;;20.92;93.59;99893.59;20260981;29;20104;-66
2023/07/24 06:08:20;;;;;;;5.60;4.15;;;;;;;20.88;93.81;99886.88;20260717;29;20139;-67
2023/07/24 06:18:22;;;;;;;3.78;3.38;;;;;;;20.84;93.75;99875.56;20242690;29;20092;-67
2023/07/24 06:28:23;;;;;;;3.95;3.55;;;;;;;20.83;93.83;99889.28;20261990;29;20059;-66
2023/07/24 06:38:25;;;;;;;5.05;3.50;;;;;;;20.87;94.02;99879.78;20274950;29;20526;-67
2023/07/24 06:48:27;;;;;;;5.00;3.50;;;;;;;20.91;94.34;99891.06;20258420;29;20405;-67
2023/07/24 06:58:28;;;;;;;4.35;3.80;;;;;;;20.94;94.03;99880.75;20275573;29;20461;-67
2023/07/24 07:08:30;;;;;;;4.80;4.07;;;;;;;20.90;94.08;99882.13;20271179;29;20509;-66
2023/07/24 07:18:31;;;;;;;4.65;3.50;;;;;;;20.94;94.01;99890.72;20271682;29;20103;-67
2023/07/24 07:28:33;;;;;;;4.35;3.72;;;;;;;20.94;93.87;99872.63;20270916;29;20507;-66
2023/07/24 07:38:35;;;;;;;4.75;3.53;;;;;;;21.00;93.71;99879.19;20269624;29;20056;-67
2023/07/24 07:48:36;;;;;;;4.65;3.45;;;;;;;20.95;93.48;99862.63;20267950;29;20084;-67
2023/07/24 07:58:38;;;;;;;4.47;3.33;;;;;;;21.06;93.21;99880.31;20268502;29;20052;-66
2023/07/24 08:08:40;;;;;;;4.05;3.40;;;;;;;21.03;93.09;99877.97;20268357;29;20124;-67
2023/07/24 08:18:41;;;;;;;4.07;3.13;;;;;;;21.01;93.06;99868.16;20266688;29;20449;-67
2023/07/24 08:28:43;;;;;;;7.28;3.72;;;;;;;21.12;93.53;99876.88;20249223;29;20459;-67
2023/07/24 08:38:45;;;;;;;6.10;3.10;;;;;;;21.43;94.32;99874.06;20228534;29;20061;-67
2023/07/24 08:48:46;;;;;;;5.20;3.42;;;;;;;21.76;92.13;99855.78;20235770;29;20083;-66
2023/07/24 08:58:48;;;;;;;5.75;3.45;;;;;;;22.44;89.84;99856.38;20215903;29;20509;-65
2023/07/24 09:08:54;;;;;;;7.68;3.80;;;;;;;22.88;88.74;99842.88;20237000;29;20081;-65
2023/07/24 09:18:57;;;;;;;5.70;3.30;;;;;;;22.55;89.56;99846.94;20196732;29;20074;-65
2023/07/24 09:29:11;;;;;;;6.05;3.28;;;;;;;22.20;91.81;99849.44;20210743;29;20052;-62
2023/07/24 09:39:13;;;;;;;5.78;3.67;;;;;;;22.07;93.62;99847.41;20249863;29;20080;-62
2023/07/24 09:49:15;;;;;;;6.00;3.47;;;;;;;22.02;93.82;99845.28;20230425;29;20080;-62
2023/07/24 09:59:17;;;;;;;7.20;3.47;;;;;;;22.00;93.80;99828.38;20219613;29;20072;-62
2023/07/24 10:09:22;;;;;;;6.95;3.90;;;;;;;21.94;91.81;99825.56;20207877;29;20517;-62
2023/07/24 10:19:24;;;;;;;5.97;3.25;;;;;;;21.96;90.92;99815.38;20247544;29;20053;-62
2023/07/24 10:29:25;;;;;;;5.20;3.28;;;;;;;21.95;90.74;99819.13;20245024;29;20049;-62
2023/07/24 10:39:37;;;;;;;5.05;3.75;;;;;;;21.86;90.60;99789.44;20243850;29;20045;-62
2023/07/24 10:49:48;;;;;;;5.07;3.55;;;;;;;21.92;89.93;99801.41;20248284;29;20068;-62
2023/07/24 10:59:49;;;;;;;5.97;3.78;;;;;;;21.92;89.45;99805.97;20247864;29;20053;-62
2023/07/24 11:09:51;;;;;;;5.22;3.60;;;;;;;21.89;89.33;99777.41;20242275;29;20049;-63
2023/07/24 11:19:52;;;;;;;3.90;3.10;;;;;;;21.87;90.22;99777.56;20259948;29;20077;-64
2023/07/24 11:29:54;;;;;;;6.85;3.35;;;;;;;21.93;91.30;99769.72;20241634;29;20057;-64
2023/07/24 11:40:04;;;;;;;4.75;3.22;;;;;;;21.99;91.73;99782.50;20259325;29;20041;-63
2023/07/24 11:50:06;;;;;;;6.07;3.13;;;;;;;22.01;91.19;99793.97;20250172;29;20424;-63
2023/07/24 12:00:22;;;;;;;5.22;3.25;;;;;;;22.00;92.06;99786.88;20248650;29;20052;-63
2023/07/24 12:10:27;;;;;;;4.65;3.42;;;;;;;22.00;92.22;99798.56;20238530;29;20073;-64
2023/07/24 12:20:30;;;;;;;4.10;3.40;;;;;;;22.03;93.03;99781.06;20251321;29;20764;-64
2023/07/24 12:30:31;;;;;;;4.10;3.08;;;;;;;22.03;90.51;99770.22;20257659;29;20048;-64
2023/07/24 12:40:33;;;;;;;4.97;3.17;;;;;;;22.02;89.55;99749.59;20228518;29;20051;-64
2023/07/24 12:50:35;;;;;;;4.43;3.20;;;;;;;22.04;89.42;99762.97;20227689;29;20104;-63
2023/07/24 13:00:37;;;;;;;7.88;3.63;;;;;;;22.05;88.24;99768.16;20236153;29;20561;-65
2023/07/24 13:10:38;;;;;;;5.20;3.35;;;;;;;22.02;87.16;99758.56;20242884;29;20083;-67
2023/07/24 13:20:40;;;;;;;7.18;3.65;;;;;;;21.98;87.11;99753.72;20229555;29;20447;-65
2023/07/24 13:30:42;;;;;;;10.13;3.17;;;;;;;21.94;87.85;99753.28;20242006;29;20513;-63
2023/07/24 13:40:44;;;;;;;6.93;2.80;;;;;;;21.94;88.94;99787.66;20237615;29;20054;-65
2023/07/24 13:50:45;;;;;;;5.13;2.97;;;;;;;21.92;90.70;99795.97;20233180;29;20530;-64
2023/07/24 14:00:47;;;;;;;6.22;3.42;;;;;;;21.92;91.45;99773.44;20216386;29;20055;-64
2023/07/24 14:10:49;;;;;;;5.75;3.00;;;;;;;21.92;92.00;99812.25;20234896;29;20135;-65
2023/07/24 14:20:54;;;;;;;5.68;3.17;;;;;;;21.91;91.42;99817.84;20219886;29;20355;-64
2023/07/24 14:30:56;;;;;;;3.72;2.70;;;;;;;21.87;91.73;99804.66;20234318;29;20417;-64
2023/07/24 14:40:57;;;;;;;5.35;2.80;;;;;;;21.87;92.00;99785.69;20220983;29;20076;-64
2023/07/24 14:50:59;;;;;;;3.75;2.78;;;;;;;21.79;91.50;99784.97;20262411;29;20182;-70
2023/07/24 15:01:01;;;;;;;5.30;3.47;;;;;;;21.28;94.68;99790.13;20223758;29;20494;-68
2023/07/24 15:11:02;;;;;;;4.65;2.45;;;;;;;21.09;98.09;99787.94;20217424;29;20194;-64
2023/07/24 15:21:04;;;;;;;4.28;2.35;;;;;;;21.03;99.70;99786.81;20237759;29;20088;-64
2023/07/24 15:31:09;;;;;;;5.07;2.45;;;;;;;21.06;100.00;99804.53;20208470;29;20045;-64
2023/07/24 15:41:10;;;;;;;;;;;;;;;21.12;100.00;99828.16;20218551;29;20061;-65
2023/07/24 15:51:12;;;;;;;3.92;2.35;;;;;;;21.16;100.00;99853.81;20199651;29;19935;-66
2023/07/24 16:01:13;;;;;;;6.20;2.30;;;;;;;21.24;100.00;99867.31;20202839;29;20638;-65
2023/07/24 16:11:15;;;;;;;4.20;2.55;;;;;;;21.44;100.00;99870.31;20222109;29;20060;-68
2023/07/24 16:21:17;;;;;;;4.07;2.05;;;;;;;21.72;100.00;99896.78;20222322;29;20048;-70
2023/07/24 16:31:18;;;;;;;3.78;1.92;;;;;;;21.84;100.00;99897.16;20204862;29;20081;-68
2023/07/24 16:41:20;;;;;;;4.70;1.70;;;;;;;21.93;100.00;99916.88;20219637;29;20049;-68
2023/07/24 16:51:22;;;;;;;3.05;1.50;;;;;;;21.97;100.00;99944.44;20221325;29;20153;-68
2023/07/24 17:01:24;;;;;;;3.63;1.67;;;;;;;21.92;100.00;99958.56;20208100;29;20048;-66
2023/07/24 17:11:26;;;;;;;2.95;1.40;;;;;;;21.92;100.00;99977.53;20251084;29;20561;-66
2023/07/24 17:21:27;;;;;;;6.72;1.80;;;;;;;22.04;99.93;99987.91;20220068;29;20053;-65
2023/07/24 17:31:33;;;;;;;6.28;1.20;;;;;;;22.00;96.87;99995.53;20234898;29;20044;-66
2023/07/24 17:41:34;;;;;;;4.18;1.20;;;;;;;21.97;94.05;99990.50;20244647;29;20049;-67
2023/07/24 17:51:36;;;;;;;3.05;1.33;;;;;;;21.90;92.76;100005.81;20251238;29;20395;-75
2023/07/24 18:01:37;;;;;;;2.78;1.20;;;;;;;21.86;92.43;100022.44;20224052;29;20053;-75
2023/07/24 18:11:39;;;;;;;2.28;1.13;;;;;;;21.79;90.59;100032.34;20254688;29;20135;-75
2023/07/24 18:21:41;;;;;;;5.20;1.48;;;;;;;21.76;89.73;100048.09;20244324;29;20098;-78
2023/07/24 18:31:42;;;;;;;4.07;1.33;;;;;;;21.73;89.23;100060.16;20258389;29;20052;-75
2023/07/24 18:41:44;;;;;;;3.25;1.02;;;;;;;21.70;88.13;100053.22;20259445;29;20604;-73
2023/07/24 18:51:48;;;;;;;2.77;1.23;;;;;;;21.59;86.39;100073.44;20266514;29;20136;-74
2023/07/24 19:01:50;;;;;;;4.40;1.70;;;;;;;21.51;86.43;100083.50;20220049;29;20155;-74
2023/07/24 19:11:52;;;;;;;3.75;1.48;;;;;;;21.42;85.61;100090.84;20239708;29;20095;-74
2023/07/24 19:21:53;;;;;;;3.58;1.20;;;;;;;21.36;85.58;100105.91;20256642;29;20509;-74
2023/07/24 19:31:55;;;;;;;2.60;1.20;;;;;;;21.34;85.77;100128.78;20241157;29;20063;-75
2023/07/24 19:41:57;;;;;;;1.38;1.00;;;;;;;21.32;85.51;100130.84;20229865;29;20052;-75
2023/07/24 19:51:59;;;;;;;3.63;1.40;;;;;;;21.30;87.23;100153.50;20218673;29;20061;-75
2023/07/24 20:02:02;;;;;;;2.22;1.17;;;;;;;21.27;85.66;100159.28;20230120;29;20052;-75
2023/07/24 20:12:04;;;;;;;2.53;1.13;;;;;;;21.25;85.29;100169.44;20235510;29;20135;-75
2023/07/24 20:22:06;;;;;;;1.88;0.95;;;;;;;21.24;85.14;100172.31;20222188;29;20057;-75
2023/07/24 20:32:09;;;;;;;2.13;0.95;;;;;;;21.22;84.75;100179.78;20242936;29;20123;-75
2023/07/24 20:42:10;;;;;;;2.55;1.20;;;;;;;21.24;87.42;100189.41;20266232;29;20053;-74
2023/07/24 20:52:12;;;;;;;2.45;1.50;;;;;;;21.25;87.49;100201.94;20264468;29;20092;-74
2023/07/24 21:02:14;;;;;;;4.07;1.20;;;;;;;21.21;87.11;100200.59;20264399;29;20521;-74
2023/07/24 21:12:16;;;;;;;3.80;1.40;;;;;;;21.20;86.74;100207.00;20264139;29;20505;-74
2023/07/24 21:22:17;;;;;;;1.95;1.13;;;;;;;21.15;86.15;100218.38;20262803;29;20089;-74
2023/07/24 21:32:19;;;;;;;2.55;1.20;;;;;;;21.15;85.68;100231.03;20261584;29;20052;-74
2023/07/24 21:42:20;;;;;;;2.80;1.20;;;;;;;21.12;85.10;100229.53;20261178;29;20071;-73
2023/07/24 21:52:22;;;;;;;2.15;1.20;;;;;;;21.10;84.68;100230.72;20260179;29;20056;-74
2023/07/24 22:02:24;;;;;;;2.05;1.10;;;;;;;21.09;84.41;100245.28;20258672;29;20091;-74
2023/07/24 22:12:26;;;;;;;2.13;1.27;;;;;;;21.08;83.98;100257.13;20259605;29;20528;-74
2023/07/24 22:22:27;;;;;;;2.05;0.95;;;;;;;21.04;83.44;100258.47;20259264;29;20056;-74
2023/07/24 22:32:29;;;;;;;1.88;1.25;;;;;;;21.02;82.88;100250.56;20258748;29;20049;-74
2023/07/24 22:54:25;;;;;;;2.53;1.35;;;;;;;20.98;85.11;100252.75;20256043;29;20148;-74
2023/07/24 23:04:26;;;;;;;1.48;0.80;;;;;;;20.97;84.34;100261.88;20258114;29;20131;-74
2023/07/24 23:14:28;;;;;;;1.80;1.02;;;;;;;20.94;83.73;100262.22;20264712;29;20135;-74
2023/07/24 23:24:29;;;;;;;2.22;1.20;;;;;;;20.92;84.80;100266.13;20272082;29;20112;-74
2023/07/24 23:34:31;;;;;;;1.63;1.00;;;;;;;20.89;83.81;100261.91;20271877;29;20063;-74
2023/07/24 23:44:33;;;;;;;2.10;1.20;;;;;;;20.87;83.67;100258.53;20269492;29;20103;-74
2023/07/24 23:54:34;;;;;;;2.80;1.30;;;;;;;20.84;83.63;100258.88;20267484;29;20116;-74
